createdAt,value
2017-05-19T00:00:34.422Z,22.0
2017-05-19T00:01:42.459Z,22.1
2017-05-19T00:02:50.546Z,22.0
2017-05-19T00:03:58.630Z,22.0
2017-05-19T00:05:06.719Z,22.0
2017-05-19T00:06:14.802Z,22.0
2017-05-19T00:07:22.889Z,21.9
2017-05-19T00:08:30.980Z,22.1
2017-05-19T00:09:39.069Z,22.0
2017-05-19T00:10:47.160Z,22.0
2017-05-19T00:11:55.239Z,21.9
2017-05-19T00:13:03.326Z,22.0
2017-05-19T00:14:11.414Z,22.0
2017-05-19T00:15:19.524Z,21.9
2017-05-19T00:16:27.587Z,21.9
2017-05-19T00:17:35.684Z,21.9
2017-05-19T00:18:43.765Z,22.0
2017-05-19T00:19:51.855Z,22.0
2017-05-19T00:20:59.940Z,22.0
2017-05-19T00:22:08.025Z,22.0
2017-05-19T00:23:16.113Z,22.0
2017-05-19T00:24:24.198Z,21.9
2017-05-19T00:25:32.292Z,22.0
2017-05-19T00:26:40.381Z,22.0
2017-05-19T00:27:48.465Z,22.0
2017-05-19T00:28:56.615Z,22.0
2017-05-19T00:30:04.642Z,21.9
2017-05-19T00:31:12.752Z,22.0
2017-05-19T00:32:20.817Z,22.0
2017-05-19T00:33:28.899Z,22.0
2017-05-19T00:34:36.988Z,22.0
2017-05-19T00:35:45.075Z,21.9
2017-05-19T00:36:53.163Z,21.9
2017-05-19T00:38:01.250Z,21.9
2017-05-19T00:39:09.335Z,22.0
2017-05-19T00:40:17.423Z,22.0
2017-05-19T00:41:25.508Z,21.9
2017-05-19T00:42:33.596Z,22.0
2017-05-19T00:43:41.682Z,21.9
2017-05-19T00:44:49.767Z,21.9
2017-05-19T00:45:57.854Z,21.9
2017-05-19T00:47:05.943Z,21.9
2017-05-19T00:48:14.027Z,21.9
2017-05-19T00:49:22.116Z,21.9
2017-05-19T00:50:30.202Z,21.9
2017-05-19T00:51:38.290Z,21.9
2017-05-19T00:52:46.385Z,21.9
2017-05-19T00:53:54.465Z,21.9
2017-05-19T00:55:02.550Z,21.8
2017-05-19T00:56:10.640Z,21.9
2017-05-19T00:57:18.725Z,21.9
2017-05-19T00:58:26.818Z,21.9
2017-05-19T00:59:34.902Z,21.9
2017-05-19T01:00:42.984Z,21.9
2017-05-19T01:01:51.074Z,21.9
2017-05-19T01:02:59.157Z,21.8
2017-05-19T01:04:07.246Z,21.8
2017-05-19T01:05:15.338Z,21.9
2017-05-19T01:06:23.425Z,21.9
2017-05-19T01:07:31.508Z,21.8
2017-05-19T01:08:39.591Z,21.8
2017-05-19T01:09:47.678Z,21.8
2017-05-19T01:10:55.763Z,21.8
2017-05-19T01:12:03.848Z,21.8
2017-05-19T01:13:11.938Z,21.8
2017-05-19T01:14:20.026Z,21.8
2017-05-19T01:15:28.111Z,21.8
2017-05-19T01:16:36.200Z,21.8
2017-05-19T01:17:44.285Z,21.8
2017-05-19T01:18:52.374Z,21.8
2017-05-19T01:20:00.458Z,21.8
2017-05-19T01:21:08.545Z,21.8
2017-05-19T01:22:16.691Z,21.8
2017-05-19T01:23:24.720Z,21.8
2017-05-19T01:24:32.809Z,21.8
2017-05-19T01:25:40.895Z,21.8
2017-05-19T01:26:48.980Z,21.8
2017-05-19T01:27:57.067Z,21.8
2017-05-19T01:29:05.154Z,21.8
2017-05-19T01:30:13.243Z,21.8
2017-05-19T01:31:21.330Z,21.8
2017-05-19T01:32:29.413Z,21.8
2017-05-19T01:33:37.501Z,21.8
2017-05-19T01:34:45.585Z,21.8
2017-05-19T01:35:53.676Z,21.8
2017-05-19T01:37:01.760Z,21.7
2017-05-19T01:38:09.852Z,21.8
2017-05-19T01:39:17.963Z,21.7
2017-05-19T01:40:26.025Z,21.7
2017-05-19T01:41:34.108Z,21.7
2017-05-19T01:42:42.195Z,21.8
2017-05-19T01:43:50.282Z,21.8
2017-05-19T01:44:58.372Z,21.8
2017-05-19T01:46:06.462Z,21.7
2017-05-19T01:47:14.546Z,21.7
2017-05-19T01:48:22.635Z,21.7
2017-05-19T01:49:30.719Z,21.8
2017-05-19T01:50:38.810Z,21.7
2017-05-19T01:51:46.903Z,21.8
2017-05-19T01:52:54.983Z,21.8
2017-05-19T01:54:03.066Z,21.8
2017-05-19T01:55:11.157Z,21.7
2017-05-19T01:56:19.270Z,21.7
2017-05-19T01:57:27.330Z,21.7
2017-05-19T01:58:35.413Z,21.7
2017-05-19T01:59:43.501Z,21.7
2017-05-19T02:00:51.587Z,21.7
2017-05-19T02:01:59.676Z,21.8
2017-05-19T02:03:07.770Z,21.7
2017-05-19T02:04:15.851Z,21.7
2017-05-19T02:05:23.945Z,21.8
2017-05-19T02:06:32.023Z,21.8
2017-05-19T02:07:40.109Z,21.7
2017-05-19T02:08:48.195Z,21.7
2017-05-19T02:09:56.285Z,21.6
2017-05-19T02:11:04.367Z,21.7
2017-05-19T02:12:12.454Z,21.7
2017-05-19T02:13:20.541Z,21.8
2017-05-19T02:14:28.630Z,21.7
2017-05-19T02:15:36.727Z,21.6
2017-05-19T02:16:44.806Z,21.7
2017-05-19T02:17:52.890Z,21.6
2017-05-19T02:19:00.973Z,21.6
2017-05-19T02:20:09.060Z,21.7
2017-05-19T02:21:17.146Z,21.7
2017-05-19T02:22:25.234Z,21.7
2017-05-19T02:23:33.321Z,21.7
2017-05-19T02:24:41.409Z,21.7
2017-05-19T02:25:49.495Z,21.7
2017-05-19T02:26:57.582Z,21.7
2017-05-19T02:28:05.668Z,21.6
2017-05-19T02:29:13.755Z,21.7
2017-05-19T02:30:21.845Z,21.6
2017-05-19T02:31:29.925Z,21.6
2017-05-19T02:32:38.017Z,21.6
2017-05-19T02:33:46.099Z,21.7
2017-05-19T02:34:54.186Z,21.6
2017-05-19T02:36:02.278Z,21.5
2017-05-19T02:37:10.361Z,21.7
2017-05-19T02:38:18.450Z,21.6
2017-05-19T02:39:26.538Z,21.7
2017-05-19T02:40:34.619Z,21.7
2017-05-19T02:41:42.714Z,21.7
2017-05-19T02:42:50.801Z,21.7
2017-05-19T02:43:58.886Z,21.6
2017-05-19T02:45:06.971Z,21.5
2017-05-19T02:46:15.060Z,21.6
2017-05-19T02:47:23.162Z,21.6
2017-05-19T02:48:31.233Z,21.8
2017-05-19T02:49:39.317Z,21.6
2017-05-19T02:50:47.411Z,21.6
2017-05-19T02:51:55.497Z,21.6
2017-05-19T02:53:03.577Z,21.6
2017-05-19T02:54:11.668Z,21.6
2017-05-19T02:55:19.773Z,21.7
2017-05-19T02:56:27.839Z,21.6
2017-05-19T02:57:35.925Z,21.7
2017-05-19T02:58:44.015Z,21.6
2017-05-19T02:59:52.100Z,21.5
2017-05-19T03:01:00.189Z,21.7
2017-05-19T03:02:08.276Z,21.6
2017-05-19T03:03:16.369Z,21.6
2017-05-19T03:04:24.450Z,21.6
2017-05-19T03:05:32.537Z,21.6
2017-05-19T03:06:40.624Z,21.6
2017-05-19T03:07:48.709Z,21.6
2017-05-19T03:08:56.798Z,21.6
2017-05-19T03:10:04.888Z,21.6
2017-05-19T03:11:12.976Z,21.6
2017-05-19T03:12:21.152Z,21.6
2017-05-19T03:13:29.145Z,21.7
2017-05-19T03:14:37.234Z,21.7
2017-05-19T03:15:45.317Z,21.6
2017-05-19T03:16:53.408Z,21.6
2017-05-19T03:18:01.493Z,21.6
2017-05-19T03:19:09.585Z,21.7
2017-05-19T03:20:17.669Z,21.6
2017-05-19T03:21:25.754Z,21.6
2017-05-19T03:22:33.839Z,21.6
2017-05-19T03:23:41.927Z,21.6
2017-05-19T03:24:50.012Z,21.5
2017-05-19T03:25:58.120Z,21.5
2017-05-19T03:27:06.187Z,21.6
2017-05-19T03:28:14.276Z,21.6
2017-05-19T03:29:22.365Z,21.6
2017-05-19T03:30:30.449Z,21.6
2017-05-19T03:31:38.533Z,21.6
2017-05-19T03:32:46.622Z,21.6
2017-05-19T03:33:54.710Z,21.6
2017-05-19T03:35:02.796Z,21.5
2017-05-19T03:36:10.881Z,21.5
2017-05-19T03:37:18.980Z,21.6
2017-05-19T03:38:27.056Z,21.5
2017-05-19T03:39:35.141Z,21.5
2017-05-19T03:40:43.229Z,21.5
2017-05-19T03:41:51.315Z,21.5
2017-05-19T03:42:59.402Z,21.5
2017-05-19T03:44:07.489Z,21.6
2017-05-19T03:45:15.572Z,21.6
2017-05-19T03:46:23.661Z,21.6
2017-05-19T03:47:31.753Z,21.6
2017-05-19T03:48:39.834Z,21.6
2017-05-19T03:49:47.921Z,21.5
2017-05-19T03:50:56.013Z,21.5
2017-05-19T03:52:04.094Z,21.6
2017-05-19T03:53:12.183Z,21.5
2017-05-19T03:54:20.271Z,21.6
2017-05-19T03:55:28.355Z,21.6
2017-05-19T03:56:36.444Z,21.5
2017-05-19T03:57:44.526Z,21.6
2017-05-19T03:58:52.613Z,21.5
2017-05-19T04:00:00.748Z,21.5
2017-05-19T04:01:08.817Z,21.5
2017-05-19T04:02:16.876Z,21.5
2017-05-19T04:03:24.962Z,21.5
2017-05-19T04:04:33.048Z,21.5
2017-05-19T04:05:41.134Z,21.5
2017-05-19T04:06:49.222Z,21.5
2017-05-19T04:07:57.358Z,21.5
2017-05-19T04:09:05.395Z,21.5
2017-05-19T04:10:13.481Z,21.5
2017-05-19T04:11:21.567Z,21.5
2017-05-19T04:12:29.658Z,21.5
2017-05-19T04:13:37.741Z,21.5
2017-05-19T04:14:45.827Z,21.5
2017-05-19T04:15:53.916Z,21.5
2017-05-19T04:17:02.004Z,21.5
2017-05-19T04:18:10.091Z,21.5
2017-05-19T04:19:18.174Z,21.4
2017-05-19T04:20:26.273Z,21.4
2017-05-19T04:21:34.354Z,21.5
2017-05-19T04:22:42.445Z,21.5
2017-05-19T04:23:50.527Z,21.5
2017-05-19T04:24:58.620Z,21.5
2017-05-19T04:26:06.701Z,21.5
2017-05-19T04:27:14.786Z,21.5
2017-05-19T04:28:22.873Z,21.5
2017-05-19T04:29:30.961Z,21.5
2017-05-19T04:30:39.051Z,21.5
2017-05-19T04:31:47.138Z,21.4
2017-05-19T04:32:55.219Z,21.5
2017-05-19T04:34:03.307Z,21.5
2017-05-19T04:35:11.390Z,21.4
2017-05-19T04:36:19.475Z,21.4
2017-05-19T04:37:27.564Z,21.5
2017-05-19T04:38:35.651Z,21.5
2017-05-19T04:39:43.747Z,21.5
2017-05-19T04:40:51.828Z,21.5
2017-05-19T04:41:59.915Z,21.4
2017-05-19T04:43:08.000Z,21.4
2017-05-19T04:44:16.081Z,21.3
2017-05-19T04:45:24.168Z,21.4
2017-05-19T04:46:32.256Z,21.4
2017-05-19T04:47:40.343Z,21.4
2017-05-19T04:48:48.433Z,21.4
2017-05-19T04:49:56.522Z,21.4
2017-05-19T04:51:04.611Z,21.4
2017-05-19T04:52:12.690Z,21.4
2017-05-19T04:53:20.776Z,21.5
2017-05-19T04:54:28.865Z,21.4
2017-05-19T04:55:37.014Z,21.4
2017-05-19T04:56:45.055Z,21.4
2017-05-19T04:57:53.170Z,21.4
2017-05-19T04:59:01.223Z,21.3
2017-05-19T05:00:09.315Z,21.3
2017-05-19T05:01:17.396Z,21.4
2017-05-19T05:02:25.482Z,21.4
2017-05-19T05:03:33.569Z,21.4
2017-05-19T05:04:41.655Z,21.4
2017-05-19T05:05:49.916Z,21.4
2017-05-19T05:06:57.828Z,21.4
2017-05-19T05:08:05.915Z,21.4
2017-05-19T05:09:14.002Z,21.4
2017-05-19T05:10:22.660Z,21.3
2017-05-19T05:11:30.171Z,21.4
2017-05-19T05:12:38.266Z,21.4
2017-05-19T05:13:46.348Z,21.4
2017-05-19T05:14:55.272Z,21.4
2017-05-19T05:16:02.521Z,21.3
2017-05-19T05:17:10.605Z,21.4
2017-05-19T05:18:18.693Z,21.3
2017-05-19T05:19:26.781Z,21.4
2017-05-19T05:20:34.929Z,21.4
2017-05-19T05:21:44.114Z,21.4
2017-05-19T05:22:51.124Z,21.4
2017-05-19T05:23:59.198Z,21.4
2017-05-19T05:25:07.393Z,21.4
2017-05-19T05:26:15.296Z,21.3
2017-05-19T05:27:23.384Z,21.3
2017-05-19T05:28:31.494Z,21.3
2017-05-19T05:29:39.559Z,21.3
2017-05-19T05:30:47.644Z,21.4
2017-05-19T05:31:55.731Z,21.3
2017-05-19T05:33:03.815Z,21.4
2017-05-19T05:34:11.910Z,21.3
2017-05-19T05:35:19.987Z,21.4
2017-05-19T05:36:28.076Z,21.4
2017-05-19T05:37:36.163Z,21.4
2017-05-19T05:38:44.246Z,21.4
2017-05-19T05:39:52.333Z,21.4
2017-05-19T05:41:00.420Z,21.3
2017-05-19T05:42:08.508Z,21.4
2017-05-19T05:43:16.595Z,21.4
2017-05-19T05:44:24.679Z,21.3
2017-05-19T05:45:32.772Z,21.4
2017-05-19T05:46:40.857Z,21.3
2017-05-19T05:47:48.953Z,21.3
2017-05-19T05:48:57.028Z,21.3
2017-05-19T05:50:05.116Z,21.4
2017-05-19T05:51:13.207Z,21.3
2017-05-19T05:52:21.291Z,21.3
2017-05-19T05:53:29.377Z,21.3
2017-05-19T05:54:37.472Z,21.3
2017-05-19T05:55:45.565Z,21.4
2017-05-19T05:56:53.655Z,21.3
2017-05-19T05:58:01.739Z,21.3
2017-05-19T05:59:09.828Z,21.3
2017-05-19T06:00:17.921Z,21.3
2017-05-19T06:01:26.002Z,21.3
2017-05-19T06:02:34.084Z,21.4
2017-05-19T06:03:42.169Z,21.4
2017-05-19T06:04:50.258Z,21.4
2017-05-19T06:05:58.346Z,21.4
2017-05-19T06:07:06.507Z,21.3
2017-05-19T06:08:14.515Z,21.4
2017-05-19T06:09:22.603Z,21.3
2017-05-19T06:10:30.689Z,21.3
2017-05-19T06:11:38.788Z,21.4
2017-05-19T06:12:46.859Z,21.4
2017-05-19T06:13:54.945Z,21.3
2017-05-19T06:15:03.034Z,21.3
2017-05-19T06:16:11.119Z,21.4
2017-05-19T06:17:19.205Z,21.3
2017-05-19T06:18:27.292Z,21.3
2017-05-19T06:19:35.379Z,21.4
2017-05-19T06:20:43.576Z,21.4
2017-05-19T06:21:51.551Z,21.4
2017-05-19T06:22:59.659Z,21.4
2017-05-19T06:24:07.787Z,21.3
2017-05-19T06:25:15.808Z,21.3
2017-05-19T06:26:23.899Z,21.3
2017-05-19T06:27:31.984Z,21.3
2017-05-19T06:28:40.074Z,21.3
2017-05-19T06:29:48.164Z,21.3
2017-05-19T06:30:56.297Z,21.3
2017-05-19T06:32:04.425Z,21.3
2017-05-19T06:33:12.416Z,21.3
2017-05-19T06:34:20.502Z,21.4
2017-05-19T06:35:28.587Z,21.3
2017-05-19T06:36:36.674Z,21.3
2017-05-19T06:37:44.766Z,21.3
2017-05-19T06:38:52.852Z,21.4
2017-05-19T06:40:00.941Z,21.4
2017-05-19T06:41:09.018Z,21.3
2017-05-19T06:42:17.745Z,21.4
2017-05-19T06:43:25.192Z,21.4
2017-05-19T06:44:33.297Z,21.4
2017-05-19T06:45:41.365Z,21.3
2017-05-19T06:46:49.453Z,21.3
2017-05-19T06:47:57.539Z,21.3
2017-05-19T06:49:05.625Z,21.4
2017-05-19T06:50:13.712Z,21.3
2017-05-19T06:51:21.800Z,21.3
2017-05-19T06:52:29.885Z,21.3
2017-05-19T06:53:37.970Z,21.3
2017-05-19T06:54:46.077Z,21.3
2017-05-19T06:55:54.141Z,21.3
2017-05-19T06:57:02.227Z,21.3
2017-05-19T06:58:10.313Z,21.4
2017-05-19T06:59:18.401Z,21.3
2017-05-19T07:00:26.485Z,21.3
2017-05-19T07:01:34.572Z,21.3
2017-05-19T07:02:42.664Z,21.4
2017-05-19T07:03:50.747Z,21.3
2017-05-19T07:04:58.831Z,21.3
2017-05-19T07:06:06.921Z,21.3
2017-05-19T07:07:15.005Z,21.3
2017-05-19T07:08:23.091Z,21.3
2017-05-19T07:09:31.180Z,21.3
2017-05-19T07:10:39.269Z,21.3
2017-05-19T07:11:47.350Z,21.3
2017-05-19T07:12:55.442Z,21.3
2017-05-19T07:14:03.524Z,21.3
2017-05-19T07:15:11.609Z,21.3
2017-05-19T07:16:19.695Z,21.3
2017-05-19T07:17:27.779Z,21.3
2017-05-19T07:18:35.868Z,21.3
2017-05-19T07:19:43.961Z,21.3
2017-05-19T07:20:52.047Z,21.3
2017-05-19T07:22:00.134Z,21.3
2017-05-19T07:23:08.218Z,21.3
2017-05-19T07:24:16.317Z,21.3
2017-05-19T07:25:24.395Z,21.3
2017-05-19T07:26:32.479Z,21.2
2017-05-19T07:27:40.567Z,21.3
2017-05-19T07:28:48.661Z,21.2
2017-05-19T07:29:56.793Z,21.2
2017-05-19T07:31:04.824Z,21.3
2017-05-19T07:32:12.913Z,21.3
2017-05-19T07:33:21.006Z,21.2
2017-05-19T07:34:29.085Z,21.3
2017-05-19T07:35:37.171Z,21.3
2017-05-19T07:36:45.255Z,21.3
2017-05-19T07:37:53.349Z,21.3
2017-05-19T07:39:01.430Z,21.2
2017-05-19T07:40:09.513Z,21.2
2017-05-19T07:41:17.600Z,21.2
2017-05-19T07:42:25.694Z,21.3
2017-05-19T07:43:33.777Z,21.2
2017-05-19T07:44:41.862Z,21.3
2017-05-19T07:45:49.947Z,21.3
2017-05-19T07:46:58.036Z,21.3
2017-05-19T07:48:06.126Z,21.2
2017-05-19T07:49:14.205Z,21.3
2017-05-19T07:50:22.294Z,21.3
2017-05-19T07:51:30.384Z,21.3
2017-05-19T07:52:38.500Z,21.2
2017-05-19T07:53:46.561Z,21.2
2017-05-19T07:54:54.653Z,21.2
2017-05-19T07:56:02.735Z,21.2
2017-05-19T07:57:10.824Z,21.2
2017-05-19T07:58:18.907Z,21.2
2017-05-19T07:59:26.995Z,21.2
2017-05-19T08:00:35.084Z,21.2
2017-05-19T08:01:43.164Z,21.2
2017-05-19T08:02:51.278Z,21.2
2017-05-19T08:03:59.338Z,21.2
2017-05-19T08:05:07.428Z,21.2
2017-05-19T08:06:15.514Z,21.2
2017-05-19T08:07:23.600Z,21.1
2017-05-19T08:08:31.681Z,21.1
2017-05-19T08:09:39.772Z,21.2
2017-05-19T08:10:47.862Z,21.2
2017-05-19T08:11:55.941Z,21.2
2017-05-19T08:13:04.033Z,21.1
2017-05-19T08:14:12.120Z,21.2
2017-05-19T08:15:20.206Z,21.1
2017-05-19T08:16:28.291Z,21.2
2017-05-19T08:17:36.382Z,21.1
2017-05-19T08:18:44.469Z,21.1
2017-05-19T08:19:52.554Z,21.1
2017-05-19T08:21:00.636Z,21.2
2017-05-19T08:22:08.727Z,21.2
2017-05-19T08:23:16.810Z,21.2
2017-05-19T08:24:24.905Z,21.2
2017-05-19T08:25:32.985Z,21.2
2017-05-19T08:26:41.074Z,21.1
2017-05-19T08:27:49.158Z,21.2
2017-05-19T08:28:57.246Z,21.1
2017-05-19T08:30:05.333Z,21.2
2017-05-19T08:31:13.419Z,21.2
2017-05-19T08:32:21.506Z,21.2
2017-05-19T08:33:29.591Z,21.1
2017-05-19T08:34:37.682Z,21.2
2017-05-19T08:35:45.761Z,21.2
2017-05-19T08:36:53.847Z,21.1
2017-05-19T08:38:01.934Z,21.1
2017-05-19T08:39:10.019Z,21.1
2017-05-19T08:40:18.120Z,21.2
2017-05-19T08:41:26.212Z,21.1
2017-05-19T08:42:34.297Z,21.2
2017-05-19T08:43:42.379Z,21.1
2017-05-19T08:44:50.469Z,21.2
2017-05-19T08:45:58.555Z,21.2
2017-05-19T08:47:06.639Z,21.1
2017-05-19T08:48:14.725Z,21.1
2017-05-19T08:49:22.810Z,21.2
2017-05-19T08:50:30.898Z,21.1
2017-05-19T08:51:38.984Z,21.1
2017-05-19T08:52:47.068Z,21.1
2017-05-19T08:53:55.157Z,21.1
2017-05-19T08:55:03.246Z,21.1
2017-05-19T08:56:11.329Z,21.0
2017-05-19T08:57:19.412Z,21.1
2017-05-19T08:58:27.500Z,21.0
2017-05-19T08:59:35.589Z,21.1
2017-05-19T09:00:43.676Z,21.0
2017-05-19T09:01:51.790Z,21.1
2017-05-19T09:02:59.846Z,21.0
2017-05-19T09:04:07.932Z,21.1
2017-05-19T09:05:16.017Z,21.0
2017-05-19T09:06:24.103Z,21.1
2017-05-19T09:07:32.192Z,21.1
2017-05-19T09:08:40.274Z,21.0
2017-05-19T09:09:48.366Z,21.0
2017-05-19T09:10:56.452Z,21.1
2017-05-19T09:12:04.536Z,21.0
2017-05-19T09:13:12.620Z,21.1
2017-05-19T09:14:20.708Z,21.1
2017-05-19T09:15:28.791Z,21.1
2017-05-19T09:16:36.883Z,21.0
2017-05-19T09:17:44.966Z,21.1
2017-05-19T09:18:53.090Z,21.0
2017-05-19T09:20:01.469Z,21.1
2017-05-19T09:21:09.222Z,21.1
2017-05-19T09:22:17.304Z,21.1
2017-05-19T09:23:25.402Z,21.1
2017-05-19T09:24:33.480Z,21.1
2017-05-19T09:25:41.568Z,21.0
2017-05-19T09:26:49.652Z,21.0
2017-05-19T09:27:57.738Z,21.1
2017-05-19T09:29:05.827Z,21.1
2017-05-19T09:30:13.913Z,21.0
2017-05-19T09:31:22.003Z,21.0
2017-05-19T09:32:30.087Z,21.0
2017-05-19T09:33:38.169Z,21.0
2017-05-19T09:34:46.257Z,21.0
2017-05-19T09:35:54.344Z,21.0
2017-05-19T09:37:02.432Z,20.9
2017-05-19T09:38:10.518Z,21.0
2017-05-19T09:39:18.604Z,21.1
2017-05-19T09:40:26.695Z,20.9
2017-05-19T09:41:34.775Z,21.0
2017-05-19T09:42:42.858Z,21.0
2017-05-19T09:43:50.949Z,21.1
2017-05-19T09:44:59.035Z,21.1
2017-05-19T09:46:07.118Z,21.0
2017-05-19T09:47:15.202Z,21.0
2017-05-19T09:48:23.292Z,20.9
2017-05-19T09:49:31.383Z,21.1
2017-05-19T09:50:39.460Z,21.1
2017-05-19T09:51:47.548Z,21.0
2017-05-19T09:52:55.634Z,20.9
2017-05-19T09:54:03.719Z,21.0
2017-05-19T09:55:11.808Z,21.0
2017-05-19T09:56:19.892Z,20.9
2017-05-19T09:57:27.988Z,20.9
2017-05-19T09:58:36.071Z,20.9
2017-05-19T09:59:44.151Z,21.0
2017-05-19T10:00:52.240Z,20.9
2017-05-19T10:02:00.329Z,20.9
2017-05-19T10:03:08.418Z,21.0
2017-05-19T10:04:16.505Z,21.1
2017-05-19T10:05:24.594Z,20.9
2017-05-19T10:06:32.691Z,21.0
2017-05-19T10:07:40.763Z,20.9
2017-05-19T10:08:48.849Z,20.9
2017-05-19T10:09:56.940Z,21.1
2017-05-19T10:11:05.023Z,21.0
2017-05-19T10:12:13.110Z,21.0
2017-05-19T10:13:21.194Z,20.9
2017-05-19T10:14:29.280Z,21.0
2017-05-19T10:15:37.367Z,20.9
2017-05-19T10:16:45.454Z,21.0
2017-05-19T10:17:53.540Z,20.9
2017-05-19T10:19:01.628Z,21.0
2017-05-19T10:20:09.710Z,21.0
2017-05-19T10:21:17.798Z,21.0
2017-05-19T10:22:25.886Z,21.0
2017-05-19T10:23:33.994Z,21.0
2017-05-19T10:24:42.086Z,20.9
2017-05-19T10:25:50.140Z,20.9
2017-05-19T10:26:58.229Z,20.9
2017-05-19T10:28:06.313Z,20.9
2017-05-19T10:29:14.400Z,20.9
2017-05-19T10:30:22.484Z,21.0
2017-05-19T10:31:30.574Z,20.9
2017-05-19T10:32:38.659Z,20.9
2017-05-19T10:33:46.748Z,20.9
2017-05-19T10:34:54.835Z,21.0
2017-05-19T10:36:02.921Z,20.9
2017-05-19T10:37:11.008Z,20.9
2017-05-19T10:38:19.093Z,20.9
2017-05-19T10:39:27.178Z,21.0
2017-05-19T10:40:35.266Z,20.9
2017-05-19T10:41:43.353Z,20.9
2017-05-19T10:42:51.437Z,20.9
2017-05-19T10:43:59.523Z,20.9
2017-05-19T10:45:07.610Z,20.9
2017-05-19T10:46:15.700Z,20.9
2017-05-19T10:47:23.781Z,20.9
2017-05-19T10:48:31.870Z,20.9
2017-05-19T10:49:39.955Z,20.9
2017-05-19T10:50:48.065Z,20.9
2017-05-19T10:51:56.124Z,20.9
2017-05-19T10:53:04.213Z,20.9
2017-05-19T10:54:12.301Z,20.9
2017-05-19T10:55:20.387Z,20.9
2017-05-19T10:56:28.466Z,20.9
2017-05-19T10:57:36.555Z,20.9
2017-05-19T10:58:44.638Z,20.9
2017-05-19T10:59:52.728Z,20.9
2017-05-19T11:01:00.813Z,20.9
2017-05-19T11:02:08.899Z,20.9
2017-05-19T11:03:16.983Z,20.9
2017-05-19T11:04:25.072Z,20.9
2017-05-19T11:05:33.162Z,20.9
2017-05-19T11:06:41.238Z,20.9
2017-05-19T11:07:49.329Z,20.8
2017-05-19T11:08:57.417Z,20.8
2017-05-19T11:10:05.503Z,20.9
2017-05-19T11:11:13.588Z,20.8
2017-05-19T11:12:21.673Z,20.8
2017-05-19T11:13:29.758Z,20.8
2017-05-19T11:14:37.860Z,20.8
2017-05-19T11:15:45.932Z,20.9
2017-05-19T11:16:54.015Z,20.9
2017-05-19T11:18:02.105Z,20.8
2017-05-19T11:19:10.187Z,20.9
2017-05-19T11:20:18.274Z,20.8
2017-05-19T11:21:26.372Z,20.8
2017-05-19T11:22:34.453Z,20.8
2017-05-19T11:23:42.537Z,20.8
2017-05-19T11:24:50.648Z,20.8
2017-05-19T11:25:58.708Z,20.8
2017-05-19T11:27:06.796Z,20.8
2017-05-19T11:28:14.880Z,20.8
2017-05-19T11:29:22.973Z,20.8
2017-05-19T11:30:31.055Z,20.8
2017-05-19T11:31:39.140Z,20.8
2017-05-19T11:32:47.225Z,20.8
2017-05-19T11:33:55.309Z,20.8
2017-05-19T11:35:03.397Z,20.7
2017-05-19T11:36:11.482Z,20.8
2017-05-19T11:37:19.568Z,20.8
2017-05-19T11:38:27.653Z,20.8
2017-05-19T11:39:35.757Z,20.8
2017-05-19T11:40:43.829Z,20.9
2017-05-19T11:41:51.916Z,20.9
2017-05-19T11:43:00.000Z,20.8
2017-05-19T11:44:08.081Z,20.8
2017-05-19T11:45:16.174Z,20.8
2017-05-19T11:46:24.263Z,20.9
2017-05-19T11:47:32.354Z,20.8
2017-05-19T11:48:40.433Z,20.7
2017-05-19T11:49:48.518Z,20.8
2017-05-19T11:50:56.605Z,20.7
2017-05-19T11:52:04.689Z,20.8
2017-05-19T11:53:12.778Z,20.7
2017-05-19T11:54:20.860Z,20.8
2017-05-19T11:55:28.946Z,20.7
2017-05-19T11:56:37.132Z,20.7
2017-05-19T11:57:45.119Z,20.7
2017-05-19T11:58:53.211Z,20.8
2017-05-19T12:00:01.289Z,20.7
2017-05-19T12:01:09.382Z,20.7
2017-05-19T12:02:17.469Z,20.7
2017-05-19T12:03:25.555Z,20.8
2017-05-19T12:04:33.640Z,20.7
2017-05-19T12:05:41.724Z,20.7
2017-05-19T12:06:49.809Z,20.7
2017-05-19T12:07:57.895Z,20.8
2017-05-19T12:09:05.984Z,20.7
2017-05-19T12:10:14.070Z,20.7
2017-05-19T12:11:22.159Z,20.7
2017-05-19T12:12:30.238Z,20.8
2017-05-19T12:13:38.379Z,20.7
2017-05-19T12:14:46.410Z,20.7
2017-05-19T12:15:54.499Z,20.7
2017-05-19T12:17:02.583Z,20.8
2017-05-19T12:18:10.673Z,20.7
2017-05-19T12:19:18.762Z,20.7
2017-05-19T12:20:26.840Z,20.7
2017-05-19T12:21:34.928Z,20.7
2017-05-19T12:22:43.024Z,20.7
2017-05-19T12:23:51.104Z,20.7
2017-05-19T12:24:59.189Z,20.7
2017-05-19T12:26:07.273Z,20.7
2017-05-19T12:27:15.363Z,20.7
2017-05-19T12:28:23.456Z,20.7
2017-05-19T12:29:31.538Z,20.7
2017-05-19T12:30:39.644Z,20.7
2017-05-19T12:31:47.711Z,20.7
2017-05-19T12:32:55.796Z,20.7
2017-05-19T12:34:03.881Z,20.7
2017-05-19T12:35:11.972Z,20.7
2017-05-19T12:36:20.058Z,20.7
2017-05-19T12:37:28.145Z,20.7
2017-05-19T12:38:36.231Z,20.7
2017-05-19T12:39:44.316Z,20.7
2017-05-19T12:40:52.396Z,20.7
2017-05-19T12:42:00.483Z,20.7
2017-05-19T12:43:08.571Z,20.6
2017-05-19T12:44:16.683Z,20.7
2017-05-19T12:45:24.743Z,20.6
2017-05-19T12:46:32.831Z,20.6
2017-05-19T12:47:40.917Z,20.7
2017-05-19T12:48:48.999Z,20.6
2017-05-19T12:49:57.083Z,20.6
2017-05-19T12:51:05.168Z,20.6
2017-05-19T12:52:13.259Z,20.6
2017-05-19T12:53:21.342Z,20.6
2017-05-19T12:54:29.425Z,20.6
2017-05-19T12:55:37.514Z,20.7
2017-05-19T12:56:45.598Z,20.7
2017-05-19T12:57:53.689Z,20.7
2017-05-19T12:59:01.781Z,20.6
2017-05-19T13:00:09.872Z,20.6
2017-05-19T13:01:17.953Z,20.6
2017-05-19T13:02:26.050Z,20.6
2017-05-19T13:03:34.134Z,20.6
2017-05-19T13:04:42.214Z,20.6
2017-05-19T13:05:50.304Z,20.5
2017-05-19T13:06:58.387Z,20.6
2017-05-19T13:08:06.477Z,20.6
2017-05-19T13:09:14.613Z,20.5
2017-05-19T13:10:22.645Z,20.6
2017-05-19T13:11:30.743Z,20.5
2017-05-19T13:12:38.815Z,20.6
2017-05-19T13:13:46.903Z,20.5
2017-05-19T13:14:54.988Z,20.5
2017-05-19T13:16:03.072Z,20.5
2017-05-19T13:17:11.157Z,20.5
2017-05-19T13:18:19.250Z,20.5
2017-05-19T13:19:27.331Z,20.5
2017-05-19T13:20:35.418Z,20.6
2017-05-19T13:21:43.501Z,20.5
2017-05-19T13:22:51.593Z,20.5
2017-05-19T13:23:59.672Z,20.5
2017-05-19T13:25:07.761Z,20.5
2017-05-19T13:26:16.029Z,20.5
2017-05-19T13:27:23.933Z,20.5
2017-05-19T13:28:32.017Z,20.5
2017-05-19T13:29:40.111Z,20.6
2017-05-19T13:30:48.194Z,20.5
2017-05-19T13:31:56.282Z,20.6
2017-05-19T13:33:04.374Z,20.5
2017-05-19T13:34:12.457Z,20.5
2017-05-19T13:35:20.544Z,20.4
2017-05-19T13:36:28.627Z,20.5
2017-05-19T13:37:36.714Z,20.5
2017-05-19T13:38:44.798Z,20.5
2017-05-19T13:39:52.887Z,20.5
2017-05-19T13:41:00.971Z,20.5
2017-05-19T13:42:09.060Z,20.5
2017-05-19T13:43:17.153Z,20.5
2017-05-19T13:44:25.238Z,20.5
2017-05-19T13:45:33.322Z,20.5
2017-05-19T13:46:41.404Z,20.5
2017-05-19T13:47:49.492Z,20.4
2017-05-19T13:48:57.580Z,20.5
2017-05-19T13:50:05.662Z,20.5
2017-05-19T13:51:13.749Z,20.4
2017-05-19T13:52:21.832Z,20.5
2017-05-19T13:53:29.923Z,20.5
2017-05-19T13:54:38.017Z,20.4
2017-05-19T13:55:46.102Z,20.5
2017-05-19T13:56:54.187Z,20.4
2017-05-19T13:58:02.273Z,20.5
2017-05-19T13:59:10.370Z,20.5
2017-05-19T14:00:18.443Z,20.5
2017-05-19T14:01:26.532Z,20.5
2017-05-19T14:02:34.617Z,20.5
2017-05-19T14:03:42.701Z,20.5
2017-05-19T14:04:50.789Z,20.4
2017-05-19T14:05:58.878Z,20.5
2017-05-19T14:07:06.960Z,20.5
2017-05-19T14:08:15.046Z,20.4
2017-05-19T14:09:23.133Z,20.4
2017-05-19T14:10:31.216Z,20.5
2017-05-19T14:11:39.303Z,20.4
2017-05-19T14:12:47.482Z,20.5
2017-05-19T14:13:55.478Z,20.5
2017-05-19T14:15:03.748Z,20.5
2017-05-19T14:16:11.707Z,20.5
2017-05-19T14:17:19.738Z,20.4
2017-05-19T14:18:27.821Z,20.3
2017-05-19T14:19:35.899Z,20.5
2017-05-19T14:20:43.986Z,20.5
2017-05-19T14:21:52.078Z,20.4
2017-05-19T14:23:00.161Z,20.5
2017-05-19T14:24:08.245Z,20.5
2017-05-19T14:25:16.336Z,20.5
2017-05-19T14:26:24.422Z,20.5
2017-05-19T14:27:32.507Z,20.5
2017-05-19T14:28:40.592Z,20.5
2017-05-19T14:29:48.671Z,20.5
2017-05-19T14:30:56.764Z,20.5
2017-05-19T14:32:04.846Z,20.5
2017-05-19T14:33:12.944Z,20.4
2017-05-19T14:34:21.027Z,20.5
2017-05-19T14:35:29.113Z,20.4
2017-05-19T14:36:37.203Z,20.4
2017-05-19T14:37:45.289Z,20.5
2017-05-19T14:38:53.377Z,20.4
2017-05-19T14:40:01.461Z,20.3
2017-05-19T14:41:09.551Z,20.4
2017-05-19T14:42:17.635Z,20.5
2017-05-19T14:43:25.723Z,20.5
2017-05-19T14:44:33.808Z,20.5
2017-05-19T14:45:41.892Z,20.4
2017-05-19T14:46:49.983Z,20.4
2017-05-19T14:47:58.074Z,20.5
2017-05-19T14:49:06.161Z,20.5
2017-05-19T14:50:14.267Z,20.5
2017-05-19T14:51:22.333Z,20.4
2017-05-19T14:52:30.413Z,20.5
2017-05-19T14:53:38.498Z,20.5
2017-05-19T14:54:46.601Z,20.5
2017-05-19T14:55:54.674Z,20.4
2017-05-19T14:57:02.755Z,20.5
2017-05-19T14:58:10.842Z,20.5
2017-05-19T14:59:18.929Z,20.5
2017-05-19T15:00:27.016Z,20.4
2017-05-19T15:01:35.099Z,20.5
2017-05-19T15:02:43.185Z,20.3
2017-05-19T15:03:51.270Z,20.4
2017-05-19T15:04:59.355Z,20.4
2017-05-19T15:06:07.439Z,20.3